Time;durP1;ratioP1;P1;durP2;ratioP2;P2;SDS_P1;SDS_P2;PMS_P1;PMS_P2;Temp;Humidity;BMP_temperature;BMP_pressure;BME280_temperature;BME280_humidity;BME280_pressure;Samples;Min_cycle;Max_cycle;Signal;HPM_P1;HPM_P2
2023/10/23 00:02:03;;;;;;;6.50;1.30;;;;;;;13.98;100.00;102035.38;104629;1260;73825;-49
2023/10/23 00:04:30;;;;;;;3.00;1.30;;;;;;;13.99;100.00;102030.30;109087;1254;67303;-52
2023/10/23 00:06:58;;;;;;;3.80;1.10;;;;;;;14.00;100.00;102025.77;109031;1254;71500;-51
2023/10/23 00:09:26;;;;;;;6.90;1.60;;;;;;;14.00;100.00;102025.94;108927;1254;58877;-52
2023/10/23 00:11:53;;;;;;;6.30;1.10;;;;;;;14.00;100.00;102019.98;109036;1254;59773;-51
2023/10/23 00:14:21;;;;;;;2.60;1.30;;;;;;;14.01;100.00;102022.13;108939;1254;72668;-52
2023/10/23 00:16:48;;;;;;;2.90;1.40;;;;;;;14.01;100.00;102016.89;108823;1254;66175;-52
2023/10/23 00:19:16;;;;;;;4.30;1.40;;;;;;;14.01;100.00;102015.27;108961;1257;73457;-52
2023/10/23 00:21:44;;;;;;;6.90;1.80;;;;;;;13.99;100.00;102012.79;108963;1255;62086;-52
2023/10/23 00:24:11;;;;;;;3.60;1.10;;;;;;;13.98;100.00;102007.21;109052;1254;60140;-52
2023/10/23 00:26:39;;;;;;;3.40;1.00;;;;;;;13.96;100.00;102004.73;108970;1254;73834;-52
2023/10/23 00:29:06;;;;;;;2.50;1.10;;;;;;;13.95;100.00;102001.88;109034;1253;64638;-52
2023/10/23 00:31:34;;;;;;;3.30;0.90;;;;;;;13.93;100.00;101998.15;109107;1254;72711;-52
2023/10/23 00:34:01;;;;;;;3.70;0.90;;;;;;;13.92;100.00;101998.36;108932;1254;61501;-51
2023/10/23 00:36:28;;;;;;;3.90;1.00;;;;;;;13.91;100.00;101991.88;108924;1252;60089;-52
2023/10/23 00:38:56;;;;;;;2.10;0.70;;;;;;;13.91;100.00;101991.52;108966;1253;71630;-52
2023/10/23 00:41:23;;;;;;;3.90;0.80;;;;;;;13.91;100.00;101991.52;108547;1253;65731;-51
2023/10/23 00:43:51;;;;;;;2.00;0.90;;;;;;;13.91;100.00;101994.41;104691;1254;72838;-51
2023/10/23 00:46:19;;;;;;;7.60;1.00;;;;;;;13.92;100.00;101990.23;104658;1257;60475;-50
2023/10/23 00:48:47;;;;;;;5.20;1.20;;;;;;;13.93;100.00;101992.93;104993;1259;60537;-51
2023/10/23 00:51:14;;;;;;;2.80;0.80;;;;;;;13.93;100.00;101987.31;104906;1254;72635;-50
2023/10/23 00:53:42;;;;;;;4.30;0.90;;;;;;;13.93;100.00;101983.71;104665;1253;65662;-52
2023/10/23 00:56:10;;;;;;;6.20;1.00;;;;;;;13.92;100.00;101984.83;104587;1261;74530;-50
2023/10/23 00:58:41;;;;;;;4.60;1.40;;;;;;;13.91;100.00;101983.95;104828;1260;60539;-50
2023/10/23 01:01:11;;;;;;;4.80;1.00;;;;;;;13.88;100.00;101984.58;104809;1254;60466;-50
2023/10/23 01:03:39;;;;;;;3.00;1.00;;;;;;;13.85;100.00;101982.50;105006;1254;72439;-51
2023/10/23 01:06:07;;;;;;;3.70;0.80;;;;;;;13.81;100.00;101973.56;107126;1257;67051;-49
2023/10/23 01:08:36;;;;;;;2.50;0.80;;;;;;;13.78;100.00;101970.73;106349;1255;70884;-51
2023/10/23 01:11:03;;;;;;;1.80;0.80;;;;;;;13.75;100.00;101958.73;104796;1258;61682;-51
2023/10/23 01:13:30;;;;;;;4.10;1.20;;;;;;;13.73;100.00;101954.64;105236;1258;61580;-51
2023/10/23 01:15:58;;;;;;;1.70;0.80;;;;;;;13.71;100.00;101945.86;104898;1252;73971;-49
2023/10/23 01:18:25;;;;;;;1.30;0.80;;;;;;;13.70;100.00;101945.34;104864;1259;66603;-49
2023/10/23 01:20:53;;;;;;;2.00;1.00;;;;;;;13.69;100.00;101942.15;104724;1254;72732;-51
2023/10/23 01:23:23;;;;;;;4.30;0.70;;;;;;;13.69;100.00;101938.17;104552;1254;62185;-49
2023/10/23 01:25:51;;;;;;;3.80;0.70;;;;;;;13.69;100.00;101942.86;104870;1260;60399;-47
2023/10/23 01:28:19;;;;;;;1.50;0.80;;;;;;;13.69;100.00;101932.03;104907;1254;73753;-50
2023/10/23 01:30:47;;;;;;;4.90;0.70;;;;;;;13.69;100.00;101925.72;104906;1254;66121;-51
2023/10/23 01:33:16;;;;;;;2.90;0.60;;;;;;;13.69;100.00;101927.88;108817;1258;72808;-51
2023/10/23 01:35:43;;;;;;;3.60;0.50;;;;;;;13.69;100.00;101927.90;105172;1260;61631;-51
2023/10/23 01:38:13;;;;;;;2.60;0.80;;;;;;;13.69;100.00;101928.44;104924;1252;60537;-51
2023/10/23 01:40:40;;;;;;;2.00;0.50;;;;;;;13.69;100.00;101928.79;104763;1254;74345;-51
2023/10/23 01:43:07;;;;;;;2.60;0.60;;;;;;;13.68;100.00;101929.16;104775;1254;67312;-51
2023/10/23 01:45:36;;;;;;;2.60;0.80;;;;;;;13.68;100.00;101934.77;106212;1254;70114;-51
2023/10/23 01:48:04;;;;;;;4.20;0.70;;;;;;;13.67;100.00;101934.42;104886;1256;60613;-51
2023/10/23 01:50:31;;;;;;;2.10;0.60;;;;;;;13.66;100.00;101930.13;105269;1254;61353;-51
2023/10/23 01:52:59;;;;;;;2.90;0.50;;;;;;;13.64;100.00;101916.27;104829;1255;72148;-50
2023/10/23 01:55:26;;;;;;;4.20;0.70;;;;;;;13.63;100.00;101910.33;104987;1254;65282;-53
2023/10/23 01:57:57;;;;;;;1.90;0.50;;;;;;;13.63;100.00;101913.94;104660;1257;74217;-51
2023/10/23 02:00:25;;;;;;;2.00;0.50;;;;;;;13.63;100.00;101918.45;107116;1254;60453;-50
2023/10/23 02:02:53;;;;;;;2.30;0.50;;;;;;;13.63;100.00;101911.95;104774;1258;61312;-50
2023/10/23 02:05:21;;;;;;;2.00;0.80;;;;;;;13.65;100.00;101907.59;105141;1253;73792;-50
2023/10/23 02:07:48;;;;;;;1.20;0.40;;;;;;;13.66;100.00;101907.57;104712;1258;66781;-51
2023/10/23 02:10:16;;;;;;;1.30;0.40;;;;;;;13.67;100.00;101906.47;104872;1256;74584;-51
2023/10/23 02:12:43;;;;;;;1.10;0.40;;;;;;;13.68;100.00;101902.83;104920;1259;60556;-51
2023/10/23 02:15:10;;;;;;;1.40;0.40;;;;;;;13.71;100.00;101901.11;104835;1259;60707;-51
2023/10/23 02:17:38;;;;;;;1.30;0.50;;;;;;;13.72;100.00;101901.26;104923;1254;74628;-51
2023/10/23 02:20:06;;;;;;;2.80;0.40;;;;;;;13.73;100.00;101899.08;104715;1259;66926;-51
2023/10/23 02:22:34;;;;;;;3.30;0.40;;;;;;;13.73;100.00;101891.67;105927;1257;72763;-51
2023/10/23 02:25:01;;;;;;;0.80;0.30;;;;;;;13.74;100.00;101895.08;107233;1255;60457;-51
2023/10/23 02:27:29;;;;;;;1.00;0.30;;;;;;;13.76;100.00;101889.45;104859;1254;62146;-52
2023/10/23 02:29:56;;;;;;;1.30;0.60;;;;;;;13.77;100.00;101893.92;104631;1254;72453;-50
2023/10/23 02:32:23;;;;;;;1.50;0.40;;;;;;;13.79;100.00;101907.94;104682;1256;68094;-51
2023/10/23 02:34:51;;;;;;;0.80;0.30;;;;;;;13.81;100.00;101913.66;104813;1256;72586;-51
2023/10/23 02:37:18;;;;;;;0.40;0.20;;;;;;;13.82;100.00;101913.08;104695;1254;61762;-52
2023/10/23 02:39:45;;;;;;;1.30;0.40;;;;;;;13.83;100.00;101919.38;104639;1259;60457;-52
2023/10/23 02:42:13;;;;;;;1.60;0.30;;;;;;;13.84;100.00;101915.37;104778;1257;73110;-52
2023/10/23 02:44:40;;;;;;;0.60;0.30;;;;;;;13.86;100.00;101916.24;104649;1257;65491;-51
2023/10/23 02:47:08;;;;;;;1.40;0.30;;;;;;;13.85;100.00;101909.21;104713;1257;71433;-52
2023/10/23 02:49:35;;;;;;;0.80;0.20;;;;;;;13.85;100.00;101906.86;104702;1254;61779;-52
2023/10/23 02:52:03;;;;;;;3.50;0.30;;;;;;;13.84;100.00;101911.40;104758;1254;60521;-51
2023/10/23 02:54:30;;;;;;;2.20;0.20;;;;;;;13.83;100.00;101910.90;104950;1256;74825;-52
2023/10/23 02:56:58;;;;;;;0.90;0.40;;;;;;;13.81;100.00;101910.03;104765;1257;65681;-52
2023/10/23 02:59:26;;;;;;;2.50;0.20;;;;;;;13.80;100.00;101905.54;104861;1258;74728;-52
2023/10/23 03:01:53;;;;;;;2.20;0.30;;;;;;;13.79;100.00;101905.20;104728;1260;60517;-52
2023/10/23 03:04:20;;;;;;;3.20;0.40;;;;;;;13.77;100.00;101903.85;108898;1253;59934;-51
2023/10/23 03:06:48;;;;;;;2.60;0.20;;;;;;;13.76;100.00;101901.17;108983;1254;73930;-51
2023/10/23 03:09:15;;;;;;;2.30;0.30;;;;;;;13.75;100.00;101895.42;109005;1257;66767;-51
2023/10/23 03:11:42;;;;;;;2.20;0.40;;;;;;;13.73;100.00;101893.65;109033;1254;72726;-51
2023/10/23 03:14:10;;;;;;;0.50;0.30;;;;;;;13.73;100.00;101897.64;108959;1254;60386;-51
2023/10/23 03:16:38;;;;;;;2.20;0.30;;;;;;;13.71;100.00;101896.40;108844;1253;58907;-51
2023/10/23 03:19:05;;;;;;;0.50;0.20;;;;;;;13.70;100.00;101893.36;109066;1255;72650;-51
2023/10/23 03:21:33;;;;;;;2.10;0.30;;;;;;;13.69;100.00;101887.09;109044;1257;67466;-51
2023/10/23 03:24:00;;;;;;;1.20;0.20;;;;;;;13.69;100.00;101890.34;108929;1257;73382;-50
2023/10/23 03:26:28;;;;;;;0.50;0.20;;;;;;;13.68;100.00;101890.91;108999;1254;62479;-51
2023/10/23 03:28:55;;;;;;;1.00;0.30;;;;;;;13.67;100.00;101886.27;109052;1254;62840;-51
2023/10/23 03:31:23;;;;;;;0.40;0.30;;;;;;;13.66;100.00;101885.03;109098;1254;75848;-51
2023/10/23 03:33:51;;;;;;;1.10;0.30;;;;;;;13.64;100.00;101882.89;108992;1254;68603;-51
2023/10/23 03:36:19;;;;;;;1.30;0.30;;;;;;;13.63;100.00;101884.18;108996;1253;70989;-51
2023/10/23 03:38:47;;;;;;;0.80;0.20;;;;;;;13.61;100.00;101882.95;108978;1254;62213;-51
2023/10/23 03:41:14;;;;;;;0.70;0.20;;;;;;;13.61;100.00;101880.64;109038;1254;58932;-51
2023/10/23 03:43:42;;;;;;;2.60;0.20;;;;;;;13.60;100.00;101877.41;109120;1254;73043;-51
2023/10/23 03:46:09;;;;;;;1.40;0.20;;;;;;;13.60;100.00;101874.90;108869;1256;69478;-51
2023/10/23 03:48:37;;;;;;;0.20;0.20;;;;;;;13.59;100.00;101873.83;107359;1254;73136;-52
2023/10/23 03:51:05;;;;;;;0.20;0.20;;;;;;;13.58;100.00;101871.35;105332;1260;60691;-51
2023/10/23 03:53:32;;;;;;;0.50;0.10;;;;;;;13.56;100.00;101867.23;104897;1254;60529;-51
2023/10/23 03:56:00;;;;;;;2.80;0.20;;;;;;;13.54;100.00;101870.52;104803;1259;74242;-51
2023/10/23 03:58:27;;;;;;;0.80;0.20;;;;;;;13.53;100.00;101862.08;104629;1257;67479;-51
2023/10/23 04:00:54;;;;;;;0.40;0.20;;;;;;;13.52;100.00;101862.13;104801;1260;71436;-52
2023/10/23 04:03:22;;;;;;;1.40;0.20;;;;;;;13.50;100.00;101858.39;104907;1258;61470;-51
2023/10/23 04:05:50;;;;;;;0.90;0.20;;;;;;;13.49;100.00;101853.56;104747;1254;60485;-51
2023/10/23 04:08:17;;;;;;;0.30;0.20;;;;;;;13.47;100.00;101854.32;104784;1260;73769;-51
2023/10/23 04:10:46;;;;;;;0.40;0.20;;;;;;;13.45;100.00;101852.19;104745;1257;67059;-51
2023/10/23 04:13:14;;;;;;;0.30;0.20;;;;;;;13.43;100.00;101858.94;107803;1254;72184;-51
2023/10/23 04:16:02;;;;;;;0.40;0.10;;;;;;;13.42;100.00;101853.58;104680;1260;60581;-51
2023/10/23 04:18:30;;;;;;;0.50;0.10;;;;;;;13.39;100.00;101883.04;105774;1256;165939;-49
2023/10/23 04:22:52;;;;;;;0.20;0.20;;;;;;;13.37;100.00;101772.38;101749;1291;600719;-51
2023/10/23 04:25:20;;;;;;;1.30;0.20;;;;;;;13.33;100.00;102028.90;103897;1266;59445;-50
2023/10/23 04:27:47;;;;;;;1.10;0.20;;;;;;;13.32;100.00;101988.54;103816;1266;59496;-51
2023/10/23 04:30:16;;;;;;;0.30;0.20;;;;;;;13.29;100.00;101968.56;104308;1266;71973;-50
2023/10/23 04:32:44;;;;;;;0.40;0.10;;;;;;;13.27;100.00;101956.20;105718;1266;66933;-51
2023/10/23 04:35:11;;;;;;;2.10;0.10;;;;;;;13.25;100.00;101940.58;104189;1269;72435;-51
2023/10/23 04:37:38;;;;;;;0.20;0.20;;;;;;;13.23;100.00;101932.48;104024;1269;149586;-51
2023/10/23 04:40:07;;;;;;;0.50;0.10;;;;;;;13.21;100.00;101927.84;103984;1266;59420;-51
2023/10/23 04:42:34;;;;;;;0.20;0.20;;;;;;;13.20;100.00;101918.66;105228;1263;70982;-50
2023/10/23 04:45:02;;;;;;;0.90;0.10;;;;;;;13.19;100.00;101912.20;104093;1264;65714;-49
2023/10/23 04:47:29;;;;;;;0.90;0.20;;;;;;;13.19;100.00;101910.95;103955;1269;72740;-51
2023/10/23 04:49:57;;;;;;;0.80;0.20;;;;;;;13.17;100.00;101904.52;104101;1264;61634;-51
2023/10/23 04:52:24;;;;;;;0.20;0.20;;;;;;;13.18;100.00;101896.02;104071;1264;59621;-52
2023/10/23 04:54:52;;;;;;;0.30;0.20;;;;;;;13.17;100.00;101893.17;105061;1264;73069;-51
2023/10/23 04:57:19;;;;;;;0.20;0.20;;;;;;;13.17;100.00;101892.80;104137;1266;68237;-51
2023/10/23 04:59:47;;;;;;;0.20;0.10;;;;;;;13.18;100.00;101888.63;104060;1263;71732;-49
2023/10/23 05:02:14;;;;;;;0.60;0.20;;;;;;;13.18;100.00;101885.18;104258;1265;60470;-51
2023/10/23 05:04:41;;;;;;;0.40;0.20;;;;;;;13.18;100.00;101887.55;104083;1264;59725;-51
2023/10/23 05:07:09;;;;;;;0.20;0.20;;;;;;;13.18;100.00;101885.56;105022;1264;71897;-52
2023/10/23 05:09:37;;;;;;;0.20;0.20;;;;;;;13.17;100.00;101884.68;104175;1269;67424;-51
2023/10/23 05:12:05;;;;;;;0.30;0.20;;;;;;;13.17;100.00;101889.56;107448;1266;71360;-52
2023/10/23 05:14:33;;;;;;;0.50;0.20;;;;;;;13.17;100.00;101885.59;104389;1264;60504;-53
2023/10/23 05:17:00;;;;;;;0.20;0.20;;;;;;;13.17;100.00;101887.39;104341;1264;59968;-52
2023/10/23 05:19:28;;;;;;;0.60;0.20;;;;;;;13.18;100.00;101884.67;104080;1263;72836;-52
2023/10/23 05:21:55;;;;;;;0.10;0.10;;;;;;;13.20;100.00;101889.83;104776;1259;66019;-52
2023/10/23 05:24:22;;;;;;;0.10;0.10;;;;;;;13.23;100.00;101898.23;104562;1254;73078;-51
2023/10/23 05:26:51;;;;;;;1.90;0.10;;;;;;;13.27;100.00;101911.48;104649;1259;60423;-53
2023/10/23 05:29:19;;;;;;;0.20;0.10;;;;;;;13.31;100.00;101918.04;105763;1254;59688;-51
2023/10/23 05:31:47;;;;;;;0.10;0.10;;;;;;;13.36;100.00;101928.39;104570;1256;71076;-52
2023/10/23 05:34:14;;;;;;;0.30;0.20;;;;;;;13.39;100.00;101935.51;104759;1254;67047;-52
2023/10/23 05:36:41;;;;;;;0.70;0.20;;;;;;;13.42;100.00;101936.70;104532;1254;72705;-51
2023/10/23 05:39:09;;;;;;;2.90;0.10;;;;;;;13.45;100.00;101943.99;104726;1257;60546;-52
2023/10/23 05:41:36;;;;;;;1.50;0.10;;;;;;;13.48;100.00;101942.13;104864;1254;60332;-53
2023/10/23 05:44:04;;;;;;;1.40;0.10;;;;;;;13.51;100.00;101948.20;104867;1259;73455;-51
2023/10/23 05:46:31;;;;;;;0.20;0.20;;;;;;;13.54;100.00;101951.89;107920;1254;66319;-52
2023/10/23 05:48:59;;;;;;;0.20;0.10;;;;;;;13.56;100.00;101954.54;104721;1259;72947;-52
2023/10/23 05:51:27;;;;;;;1.00;0.10;;;;;;;13.57;100.00;101955.77;104910;1256;60534;-52
2023/10/23 05:53:56;;;;;;;0.10;0.10;;;;;;;13.59;100.00;101961.70;104838;1253;60672;-51
2023/10/23 05:56:24;;;;;;;0.90;0.10;;;;;;;13.62;100.00;101967.21;104713;1254;71874;-51
2023/10/23 05:58:51;;;;;;;0.10;0.10;;;;;;;13.65;100.00;101971.81;104753;1259;65543;-51
2023/10/23 06:01:18;;;;;;;0.10;0.10;;;;;;;13.68;100.00;101974.45;104799;1260;72727;-51
2023/10/23 06:03:46;;;;;;;0.10;0.10;;;;;;;13.71;100.00;101984.27;104738;1260;60496;-51
2023/10/23 06:06:13;;;;;;;0.60;0.10;;;;;;;13.74;100.00;101987.28;109001;1254;60001;-52
2023/10/23 06:08:41;;;;;;;0.10;0.10;;;;;;;13.78;100.00;101990.25;109059;1254;71854;-52
2023/10/23 06:11:11;;;;;;;0.10;0.10;;;;;;;13.81;100.00;101995.20;109056;1254;65619;-51
2023/10/23 06:13:39;;;;;;;1.10;0.20;;;;;;;13.85;100.00;102010.09;109025;1257;72623;-51
2023/10/23 06:16:07;;;;;;;0.10;0.10;;;;;;;13.89;100.00;102013.78;108976;1254;60438;-51
2023/10/23 06:18:35;;;;;;;0.20;0.10;;;;;;;13.93;100.00;102021.25;108651;1254;58783;-49
2023/10/23 06:21:04;;;;;;;0.20;0.10;;;;;;;13.98;100.00;102027.42;108901;1254;73097;-51
2023/10/23 06:23:40;;;;;;;0.60;0.20;;;;;;;14.02;100.00;102035.81;108924;1254;66801;-51
2023/10/23 06:26:08;;;;;;;0.20;0.10;;;;;;;14.06;100.00;102061.71;109080;1254;72708;-51
2023/10/23 06:28:35;;;;;;;0.30;0.20;;;;;;;14.10;100.00;102056.20;108933;1254;60473;-51
2023/10/23 06:31:07;;;;;;;0.50;0.20;;;;;;;14.14;100.00;102063.83;109054;1253;60493;-52
2023/10/23 06:33:35;;;;;;;0.70;0.20;;;;;;;14.20;100.00;102077.95;108984;1254;73073;-51
2023/10/23 06:36:09;;;;;;;0.20;0.10;;;;;;;14.27;100.00;102091.49;109099;1254;65973;-52
2023/10/23 06:38:36;;;;;;;0.30;0.20;;;;;;;14.33;100.00;102110.28;108866;1254;72042;-51
2023/10/23 06:41:05;;;;;;;0.10;0.10;;;;;;;14.39;100.00;102107.98;108929;1257;60458;-51
2023/10/23 06:43:33;;;;;;;0.30;0.20;;;;;;;14.44;100.00;102122.50;108784;1256;61376;-51
2023/10/23 06:46:00;;;;;;;0.30;0.20;;;;;;;14.49;100.00;102128.86;104785;1254;75114;-52
2023/10/23 06:48:30;;;;;;;0.20;0.20;;;;;;;14.53;100.00;102131.81;104602;1254;67201;-51
2023/10/23 06:50:58;;;;;;;0.30;0.10;;;;;;;14.57;100.00;102140.38;107960;1256;71871;-51
2023/10/23 06:53:26;;;;;;;0.10;0.10;;;;;;;14.61;100.00;102142.26;104854;1259;61745;-51
2023/10/23 06:55:54;;;;;;;0.30;0.10;;;;;;;14.65;100.00;102154.25;104664;1260;59888;-50
2023/10/23 06:58:21;;;;;;;1.20;0.20;;;;;;;14.69;100.00;102159.77;104592;1259;73562;-51
2023/10/23 07:00:48;;;;;;;1.10;0.20;;;;;;;14.72;100.00;102169.79;104591;1254;65826;-51
2023/10/23 07:03:16;;;;;;;0.10;0.10;;;;;;;14.74;100.00;102177.32;104678;1259;73047;-50
2023/10/23 07:05:44;;;;;;;1.70;0.20;;;;;;;14.77;100.00;102181.05;108740;1254;60482;-52
2023/10/23 07:08:12;;;;;;;0.20;0.20;;;;;;;14.79;100.00;102189.51;104555;1255;62063;-51
2023/10/23 07:10:39;;;;;;;1.30;0.10;;;;;;;14.81;100.00;102197.18;107903;1254;72982;-52
2023/10/23 07:13:06;;;;;;;0.20;0.20;;;;;;;14.87;100.00;102205.91;104817;1254;67271;-51
2023/10/23 07:15:51;;;;;;;0.20;0.20;;;;;;;14.95;100.00;102243.11;104580;1256;74378;-50
2023/10/23 07:18:19;;;;;;;3.50;0.40;;;;;;;15.02;100.00;102243.10;107694;1254;58212;-51
2023/10/23 07:20:54;;;;;;;1.10;0.20;;;;;;;15.06;100.00;102249.13;104738;1259;60364;-50
2023/10/23 07:23:22;;;;;;;0.20;0.20;;;;;;;15.08;100.00;102271.30;106695;1257;71913;-49
2023/10/23 07:26:03;;;;;;;0.20;0.20;;;;;;;15.10;100.00;102262.04;107001;1257;66329;-50
2023/10/23 07:28:30;;;;;;;1.10;0.20;;;;;;;15.09;100.00;102282.12;104423;1259;71758;-51
2023/10/23 07:31:01;;;;;;;0.40;0.20;;;;;;;15.10;100.00;102262.23;104575;1260;60575;-51
2023/10/23 07:33:28;;;;;;;0.20;0.20;;;;;;;15.12;100.00;102273.91;105305;1257;59270;-49
2023/10/23 07:36:06;;;;;;;0.20;0.20;;;;;;;15.16;100.00;102271.99;104812;1259;73935;-51
2023/10/23 07:38:35;;;;;;;0.40;0.30;;;;;;;15.18;100.00;102290.41;105049;1259;66105;-49
2023/10/23 07:41:03;;;;;;;0.20;0.20;;;;;;;15.18;100.00;102279.91;104464;1257;72721;-51
2023/10/23 07:43:30;;;;;;;2.00;0.30;;;;;;;15.18;100.00;102275.19;104736;1257;61129;-50
2023/10/23 07:46:02;;;;;;;0.70;0.30;;;;;;;15.19;100.00;102279.52;104590;1260;59670;-52
2023/10/23 07:48:42;;;;;;;0.50;0.20;;;;;;;15.22;100.00;102321.96;106182;1257;73157;-52
2023/10/23 07:51:10;;;;;;;4.70;0.30;;;;;;;15.24;100.00;102296.55;108740;1255;67647;-53
2023/10/23 07:53:37;;;;;;;0.40;0.30;;;;;;;15.27;100.00;102307.86;105973;1257;72752;-53
2023/10/23 07:56:04;;;;;;;2.00;0.30;;;;;;;15.30;100.00;102312.31;104639;1257;61743;-51
2023/10/23 07:58:32;;;;;;;1.70;0.20;;;;;;;15.34;100.00;102321.08;105773;1256;60948;-51
2023/10/23 08:01:10;;;;;;;0.20;0.20;;;;;;;15.38;100.00;102327.84;104541;1257;71844;-51
2023/10/23 08:03:38;;;;;;;1.00;0.30;;;;;;;15.39;100.00;102359.10;105585;1257;66901;-51
2023/10/23 08:06:07;;;;;;;2.60;0.30;;;;;;;15.36;100.00;102338.91;104689;1262;71294;-52
2023/10/23 08:08:35;;;;;;;0.60;0.30;;;;;;;15.34;100.00;102333.74;104516;1257;60448;-52
2023/10/23 08:11:03;;;;;;;0.30;0.30;;;;;;;15.31;100.00;102326.94;104873;1259;60069;-51
2023/10/23 08:13:31;;;;;;;0.30;0.20;;;;;;;15.31;100.00;102332.54;104667;1257;72094;-52
2023/10/23 08:15:58;;;;;;;2.20;0.20;;;;;;;15.35;100.00;102334.25;104658;1259;67403;-50
2023/10/23 08:18:27;;;;;;;1.80;0.30;;;;;;;15.41;100.00;102344.02;104582;1257;71498;-53
2023/10/23 08:21:08;;;;;;;0.20;0.20;;;;;;;15.48;100.00;102366.80;104734;1257;62340;-52
2023/10/23 08:23:35;;;;;;;0.40;0.30;;;;;;;15.53;100.00;102359.45;107708;1259;59965;-52
2023/10/23 08:26:03;;;;;;;1.10;0.30;;;;;;;15.60;100.00;102362.36;104655;1256;73618;-51
2023/10/23 08:28:31;;;;;;;14.00;0.50;;;;;;;15.68;100.00;102373.52;104599;1256;67395;-52
2023/10/23 08:31:18;;;;;;;1.00;0.30;;;;;;;15.79;100.00;102426.82;104640;1259;74869;-53
2023/10/23 08:34:05;;;;;;;0.60;0.30;;;;;;;15.88;100.00;102433.63;106510;1259;60101;-52
2023/10/23 08:36:33;;;;;;;0.50;0.40;;;;;;;15.95;100.00;102415.16;106314;1257;60485;-53
2023/10/23 08:39:02;;;;;;;0.30;0.30;;;;;;;15.99;100.00;102424.27;104428;1255;72664;-52
2023/10/23 08:41:31;;;;;;;2.00;0.30;;;;;;;16.03;100.00;102435.75;105775;1257;65741;-53
2023/10/23 08:43:58;;;;;;;1.10;0.60;;;;;;;16.04;100.00;102434.98;104539;1257;72718;-52
2023/10/23 08:46:26;;;;;;;2.10;0.40;;;;;;;16.04;100.00;102433.54;104496;1259;60610;-52
2023/10/23 08:48:54;;;;;;;2.50;0.30;;;;;;;16.06;100.00;102443.28;108803;1254;58535;-53
2023/10/23 08:51:21;;;;;;;0.30;0.20;;;;;;;16.09;100.00;102447.71;108778;1256;72655;-53
2023/10/23 08:53:50;;;;;;;0.30;0.30;;;;;;;16.11;100.00;102451.08;108767;1257;67395;-51
2023/10/23 08:56:20;;;;;;;0.90;0.30;;;;;;;16.12;100.00;102461.56;108722;1257;71454;-51
2023/10/23 08:58:52;;;;;;;0.30;0.30;;;;;;;16.14;100.00;102458.06;108791;1255;60135;-51
2023/10/23 09:01:19;;;;;;;0.30;0.20;;;;;;;16.19;100.00;102482.00;108929;1255;58875;-51
2023/10/23 09:03:47;;;;;;;0.30;0.30;;;;;;;16.21;100.00;102481.77;108817;1255;72694;-51
2023/10/23 09:06:33;;;;;;;0.30;0.30;;;;;;;16.23;100.00;102520.30;108823;1257;67008;-51
2023/10/23 09:09:00;;;;;;;0.30;0.30;;;;;;;16.24;100.00;102500.71;108809;1255;72898;-51
2023/10/23 09:11:44;;;;;;;0.30;0.20;;;;;;;16.23;100.00;102488.06;108707;1257;58804;-51
2023/10/23 09:14:30;;;;;;;1.60;0.30;;;;;;;16.22;100.00;102525.23;108879;1259;60175;-51
2023/10/23 09:16:59;;;;;;;0.30;0.30;;;;;;;16.23;100.00;102528.83;108741;1257;74276;-51
2023/10/23 09:19:29;;;;;;;0.40;0.30;;;;;;;16.22;100.00;102508.02;108888;1257;67730;-51
2023/10/23 09:21:57;;;;;;;0.30;0.30;;;;;;;16.20;100.00;102516.21;108803;1254;70569;-50
2023/10/23 09:24:24;;;;;;;1.00;0.40;;;;;;;16.17;100.00;102499.84;109060;1254;59788;-51
2023/10/23 09:26:52;;;;;;;1.40;0.50;;;;;;;16.13;100.00;102497.58;108924;1254;58918;-51
2023/10/23 09:29:23;;;;;;;0.40;0.30;;;;;;;16.12;100.00;102485.11;109079;1253;73782;-50
2023/10/23 09:31:51;;;;;;;1.20;0.30;;;;;;;16.12;100.00;102483.13;109031;1252;68538;-50
2023/10/23 09:34:19;;;;;;;5.60;0.30;;;;;;;16.15;100.00;102483.38;109111;1258;72518;-50
2023/10/23 09:36:47;;;;;;;0.30;0.30;;;;;;;16.18;100.00;102476.41;108920;1257;59594;-50
2023/10/23 09:39:15;;;;;;;0.30;0.30;;;;;;;16.22;100.00;102484.83;106369;1254;59500;-52
2023/10/23 09:41:47;;;;;;;0.40;0.30;;;;;;;16.22;100.00;102472.50;104680;1260;73802;-52
2023/10/23 09:44:15;;;;;;;0.30;0.30;;;;;;;16.25;100.00;102487.27;104645;1259;67334;-52
2023/10/23 09:46:42;;;;;;;0.30;0.30;;;;;;;16.29;100.00;102481.71;104884;1258;72697;-52
2023/10/23 09:49:10;;;;;;;0.90;0.40;;;;;;;16.33;100.00;102487.59;104971;1253;60540;-52
2023/10/23 09:51:41;;;;;;;0.20;0.20;;;;;;;16.36;100.00;102488.60;105088;1259;60973;-51
2023/10/23 09:54:15;;;;;;;1.30;0.40;;;;;;;16.40;100.00;102496.98;109004;1255;74240;-52
2023/10/23 09:56:50;;;;;;;1.00;0.40;;;;;;;16.42;100.00;102500.36;107735;1257;65807;-51
2023/10/23 09:59:20;;;;;;;1.10;0.40;;;;;;;16.43;100.00;102511.95;105045;1254;73125;-51
2023/10/23 10:01:50;;;;;;;0.50;0.30;;;;;;;16.46;100.00;102510.76;104787;1257;61133;-51
2023/10/23 10:04:33;;;;;;;0.50;0.40;;;;;;;16.51;100.00;102513.49;105068;1254;60498;-51
2023/10/23 10:07:04;;;;;;;2.20;0.40;;;;;;;16.53;100.00;102537.21;104863;1254;74119;-51
2023/10/23 10:09:32;;;;;;;0.50;0.40;;;;;;;16.49;100.00;102524.48;108199;1257;67619;-51
2023/10/23 10:11:59;;;;;;;0.50;0.30;;;;;;;16.46;100.00;102507.88;104840;1257;75034;-52
2023/10/23 10:14:27;;;;;;;0.40;0.30;;;;;;;16.41;100.00;102491.36;104706;1257;62167;-51
2023/10/23 10:16:57;;;;;;;0.50;0.30;;;;;;;16.34;100.00;102481.05;106330;1255;60478;-51
2023/10/23 10:19:25;;;;;;;1.10;0.30;;;;;;;16.27;100.00;102482.68;105827;1256;73987;-52
2023/10/23 10:22:01;;;;;;;0.60;0.40;;;;;;;16.23;100.00;102477.38;104688;1260;65509;-51
2023/10/23 10:24:28;;;;;;;1.40;0.30;;;;;;;16.19;100.00;102479.46;104776;1254;72987;-50
2023/10/23 10:26:55;;;;;;;0.40;0.40;;;;;;;16.20;100.00;102463.49;104871;1255;60566;-50
2023/10/23 10:29:25;;;;;;;1.00;0.30;;;;;;;16.26;100.00;102463.32;104803;1255;60549;-52
2023/10/23 10:32:05;;;;;;;0.50;0.40;;;;;;;16.31;100.00;102480.42;105135;1254;72674;-52
2023/10/23 10:34:45;;;;;;;0.40;0.30;;;;;;;16.29;100.00;102504.36;104919;1259;67920;-52
2023/10/23 10:37:13;;;;;;;0.40;0.40;;;;;;;16.29;100.00;102482.64;105359;1257;72722;-53
2023/10/23 10:39:48;;;;;;;2.90;0.40;;;;;;;16.30;100.00;102479.16;105402;1259;60552;-51
2023/10/23 10:42:25;;;;;;;0.40;0.30;;;;;;;16.29;100.00;102475.93;105683;1257;60356;-50
2023/10/23 10:44:54;;;;;;;3.50;0.50;;;;;;;16.29;100.00;102486.43;104743;1257;73544;-52
2023/10/23 10:47:45;;;;;;;1.90;0.40;;;;;;;16.30;100.00;102464.30;108655;1256;67582;-53
2023/10/23 10:50:29;;;;;;;1.50;0.30;;;;;;;16.28;100.00;102494.08;105553;1254;73173;-50
2023/10/23 10:52:59;;;;;;;0.40;0.30;;;;;;;16.23;100.00;102482.63;104863;1261;61555;-50
2023/10/23 10:55:27;;;;;;;0.30;0.30;;;;;;;16.20;100.00;102458.42;105088;1254;60408;-50
2023/10/23 10:57:54;;;;;;;0.30;0.30;;;;;;;16.17;100.00;102437.85;104624;1252;72615;-51
2023/10/23 11:00:25;;;;;;;2.80;0.60;;;;;;;16.14;100.00;102424.75;104902;1259;68735;-51
2023/10/23 11:02:52;;;;;;;0.40;0.30;;;;;;;16.13;100.00;102419.89;104717;1258;70248;-51
2023/10/23 11:05:23;;;;;;;1.00;0.40;;;;;;;16.14;100.00;102418.23;104951;1260;60659;-49
2023/10/23 11:07:51;;;;;;;0.50;0.40;;;;;;;16.16;100.00;102407.45;104998;1257;60481;-51
2023/10/23 11:10:20;;;;;;;0.70;0.40;;;;;;;16.20;100.00;102410.05;104898;1253;73832;-50
2023/10/23 11:12:49;;;;;;;1.70;0.40;;;;;;;16.25;100.00;102413.33;104705;1254;68136;-51
2023/10/23 11:15:17;;;;;;;0.70;0.30;;;;;;;16.32;100.00;102420.20;106570;1259;71481;-49
2023/10/23 11:17:45;;;;;;;0.90;0.40;;;;;;;16.35;100.00;102425.55;105155;1256;61206;-51
2023/10/23 11:20:13;;;;;;;0.80;0.60;;;;;;;16.36;100.00;102431.16;104742;1257;60511;-51